Terminal Aerodrome Forecast
Issued by NWS

Home | Current Version | Previous Version | Text Only | Print | Product List | Glossary On
Versions: 1 2 3 4 5 6 7 8 9 10 11 12 13 14 15 16 17
000
FTUS44 KBMX 251700
TAFANB
TAF
KANB 251739Z 2518/2618 22011G15KT P6SM SKC
     FM252030 22012G17KT P6SM SCT045 SCT120
     FM260300 27007KT 6SM -RA BR SCT025 OVC050
     FM261000 27009KT 6SM BR OVC025=

USA.gov is the U.S. government's official web portal to all federal, state and local government web resources and services.